Time;durP1;ratioP1;P1;durP2;ratioP2;P2;SDS_P1;SDS_P2;PMS_P1;PMS_P2;Temp;Humidity;BMP_temperature;BMP_pressure;BME280_temperature;BME280_humidity;BME280_pressure;Samples;Min_cycle;Max_cycle;Signal;HPM_P1;HPM_P2
2022/01/26 00:00:41;;;;;;;13.57;3.97;;;;;;;3.90;77.79;101837.16;5002846;28;21490;-52
2022/01/26 00:05:54;;;;;;;8.38;3.17;;;;;;;3.92;78.13;101825.25;5019128;28;20056;-50
2022/01/26 00:08:24;;;;;;;6.05;3.13;;;;;;;3.95;77.86;101821.91;5017282;28;20059;-49
2022/01/26 00:10:51;;;;;;;10.50;4.20;;;;;;;3.95;77.81;101819.34;5020025;28;20568;-49
2022/01/26 00:13:17;;;;;;;10.35;4.22;;;;;;;3.93;77.82;101816.72;5019070;28;20651;-50
2022/01/26 00:15:45;;;;;;;10.57;4.15;;;;;;;3.92;78.13;101824.38;5018723;28;20057;-49
2022/01/26 00:18:13;;;;;;;15.18;5.70;;;;;;;3.90;78.02;101826.00;5020668;28;20053;-49
2022/01/26 00:20:46;;;;;;;12.80;4.90;;;;;;;3.86;78.34;101821.59;5016916;28;20053;-50
2022/01/26 00:23:34;;;;;;;15.93;5.22;;;;;;;3.85;78.36;101822.41;5016491;28;20811;-50
2022/01/26 00:26:07;;;;;;;12.40;5.13;;;;;;;3.84;77.88;101820.66;5016178;28;20565;-51
2022/01/26 00:28:55;;;;;;;14.88;5.30;;;;;;;3.82;78.22;101817.16;5014639;28;20057;-49
2022/01/26 00:39:44;;;;;;;12.18;4.50;;;;;;;3.80;78.28;101810.28;5015909;28;22896;-50
2022/01/26 00:42:11;;;;;;;12.75;4.65;;;;;;;3.79;78.70;101802.53;5016059;28;20045;-53
2022/01/26 00:44:42;;;;;;;11.80;4.22;;;;;;;3.74;78.19;101804.94;5016523;28;20049;-48
2022/01/26 00:47:10;;;;;;;13.45;5.80;;;;;;;3.72;79.11;101803.16;5017129;28;20049;-52
2022/01/26 00:49:37;;;;;;;16.40;4.90;;;;;;;3.72;78.61;101795.44;5017153;28;20045;-52
2022/01/26 00:52:06;;;;;;;11.32;4.80;;;;;;;3.70;79.17;101800.53;5015367;28;20049;-49
2022/01/26 00:54:34;;;;;;;11.02;3.95;;;;;;;3.69;79.08;101801.34;5023468;28;20046;-49
2022/01/26 00:57:01;;;;;;;11.32;3.55;;;;;;;3.71;79.33;101798.84;5016559;28;20049;-52
2022/01/26 00:59:27;;;;;;;14.63;4.18;;;;;;;3.69;79.36;101803.03;5017045;28;20080;-49
2022/01/26 01:01:55;;;;;;;11.50;4.25;;;;;;;3.68;79.25;101797.03;5019014;28;20084;-51
2022/01/26 01:04:23;;;;;;;10.43;3.50;;;;;;;3.67;79.41;101800.41;5017345;28;20572;-52
2022/01/26 01:06:55;;;;;;;11.43;3.90;;;;;;;3.65;78.61;101799.47;5016249;28;20049;-53
2022/01/26 01:09:23;;;;;;;10.20;3.60;;;;;;;3.63;78.83;101808.78;5019249;28;20151;-53
2022/01/26 01:11:55;;;;;;;9.13;3.55;;;;;;;3.63;79.51;101806.22;5020943;28;20517;-51
2022/01/26 01:14:22;;;;;;;7.43;3.95;;;;;;;3.62;78.75;101801.91;5020221;28;20072;-54
2022/01/26 01:16:48;;;;;;;10.00;3.85;;;;;;;3.63;79.79;101801.09;5017359;28;20518;-51
2022/01/26 01:19:29;;;;;;;8.80;3.30;;;;;;;3.63;79.76;101802.78;5020406;28;20048;-51
2022/01/26 01:25:10;;;;;;;10.38;3.67;;;;;;;3.60;79.27;101790.72;5008531;28;20202;-51
2022/01/26 01:30:29;;;;;;;9.35;3.85;;;;;;;3.60;79.96;101795.84;5015284;28;21900;-51
2022/01/26 01:33:05;;;;;;;9.63;4.03;;;;;;;3.60;79.50;101790.72;5016328;28;20085;-48
2022/01/26 01:35:33;;;;;;;11.77;4.05;;;;;;;3.61;79.50;101792.47;5017310;28;20053;-49
2022/01/26 01:38:08;;;;;;;16.67;4.53;;;;;;;3.60;80.01;101782.16;5017711;28;20041;-48
2022/01/26 01:40:37;;;;;;;12.27;4.43;;;;;;;3.61;79.61;101781.34;5016458;28;20046;-49
2022/01/26 01:43:05;;;;;;;24.25;7.90;;;;;;;3.58;79.78;101776.97;5015361;28;20168;-53
2022/01/26 01:45:34;;;;;;;10.48;4.38;;;;;;;3.60;79.48;101775.34;5017100;28;20069;-54
2022/01/26 01:48:00;;;;;;;11.75;4.43;;;;;;;3.56;79.47;101770.91;5016067;28;20187;-52
2022/01/26 01:50:27;;;;;;;13.15;4.32;;;;;;;3.55;79.58;101770.84;5016742;28;20049;-52
2022/01/26 01:52:59;;;;;;;16.05;4.88;;;;;;;3.54;79.79;101772.56;5015953;28;20073;-53
2022/01/26 01:55:28;;;;;;;15.23;5.57;;;;;;;3.54;79.80;101777.69;5016579;28;20049;-52
2022/01/26 01:57:55;;;;;;;12.70;4.50;;;;;;;3.53;79.21;101778.50;5017638;28;20778;-51
2022/01/26 02:00:22;;;;;;;12.23;4.25;;;;;;;3.53;79.94;101775.94;5018751;28;20041;-50
2022/01/26 02:02:48;;;;;;;9.30;3.72;;;;;;;3.52;79.37;101776.75;5020921;28;20054;-51
2022/01/26 02:05:15;;;;;;;7.13;3.28;;;;;;;3.52;79.75;101776.75;5023917;28;21802;-51
2022/01/26 02:07:41;;;;;;;7.07;2.95;;;;;;;3.53;79.51;101764.81;5018926;28;20057;-50
2022/01/26 02:10:09;;;;;;;8.20;2.80;;;;;;;3.55;79.74;101766.59;5019396;28;20054;-52
2022/01/26 02:12:41;;;;;;;9.18;3.42;;;;;;;3.54;79.39;101764.84;5022181;28;20057;-51
2022/01/26 02:15:13;;;;;;;10.63;3.70;;;;;;;3.54;79.60;101754.59;5021605;28;20056;-51
2022/01/26 02:51:06;;;;;;;6.38;3.25;;;;;;;3.43;79.19;101731.16;5024628;28;20128;-51
2022/01/26 02:54:04;;;;;;;10.15;3.15;;;;;;;3.42;80.01;101738.78;5017014;28;20128;-49
2022/01/26 02:56:42;;;;;;;10.40;3.33;;;;;;;3.42;79.11;101733.66;5018559;28;20054;-49
2022/01/26 02:59:33;;;;;;;8.15;3.65;;;;;;;3.38;79.78;101737.81;5021281;28;20071;-53
2022/01/26 03:02:02;;;;;;;11.05;3.58;;;;;;;3.40;79.89;101730.16;5018379;28;20052;-51
2022/01/26 03:04:35;;;;;;;12.30;3.30;;;;;;;3.40;80.20;101732.72;5018769;28;20112;-49
2022/01/26 03:07:08;;;;;;;8.55;3.80;;;;;;;3.41;79.97;101724.22;5017438;28;20127;-53
2022/01/26 03:09:41;;;;;;;7.57;4.13;;;;;;;3.43;79.89;101722.59;5016902;28;20046;-50
2022/01/26 03:12:10;;;;;;;7.38;3.50;;;;;;;3.42;79.96;101724.28;5018960;28;20127;-51
2022/01/26 03:14:45;;;;;;;9.90;3.58;;;;;;;3.40;79.73;101719.91;5018949;28;20060;-49
2022/01/26 03:17:32;;;;;;;8.05;2.78;;;;;;;3.38;79.59;101712.16;5018880;28;20064;-50
2022/01/26 03:20:04;;;;;;;12.10;3.63;;;;;;;3.39;80.21;101702.78;5017986;28;20446;-49
2022/01/26 03:33:54;;;;;;;11.07;2.92;;;;;;;3.25;79.48;101689.47;5067669;27;20420;-52
2022/01/26 03:36:21;;;;;;;9.17;3.07;;;;;;;3.21;79.09;101691.88;5074665;28;20040;-50
2022/01/26 03:38:57;;;;;;;5.35;3.35;;;;;;;3.16;79.06;101684.91;5076409;28;20375;-52
2022/01/26 03:41:33;;;;;;;8.55;3.30;;;;;;;3.10;79.13;101687.19;5079891;28;20139;-52
2022/01/26 03:44:00;;;;;;;8.32;3.28;;;;;;;3.04;79.20;101694.66;5074371;28;20040;-51
2022/01/26 03:46:27;;;;;;;8.55;3.13;;;;;;;2.98;79.60;101686.75;5075610;28;20106;-51
2022/01/26 03:48:55;;;;;;;10.05;3.00;;;;;;;2.89;80.03;101688.09;5064609;28;20524;-51
2022/01/26 03:51:21;;;;;;;9.05;3.22;;;;;;;2.80;80.34;101688.63;5066667;28;20044;-46
2022/01/26 03:53:48;;;;;;;6.43;3.08;;;;;;;2.73;80.44;101691.78;5081037;28;20067;-51
2022/01/26 03:56:14;;;;;;;9.63;3.03;;;;;;;2.70;80.61;101691.66;5077857;28;20466;-49
2022/01/26 03:58:41;;;;;;;8.10;2.97;;;;;;;2.64;81.48;101686.28;5079232;28;20051;-48
2022/01/26 04:01:07;;;;;;;9.43;3.47;;;;;;;2.61;81.05;101686.19;5076704;28;20397;-47
2022/01/26 04:03:34;;;;;;;7.18;3.35;;;;;;;2.54;82.05;101685.91;5072055;28;20083;-48
2022/01/26 04:06:01;;;;;;;10.57;3.63;;;;;;;2.52;81.77;101692.66;5071120;28;20778;-48
2022/01/26 04:08:30;;;;;;;7.63;3.67;;;;;;;2.47;82.38;101683.91;5077707;28;20048;-50
2022/01/26 04:11:08;;;;;;;9.63;3.42;;;;;;;2.47;81.67;101683.91;5069744;28;20480;-47
2022/01/26 04:13:35;;;;;;;9.23;4.00;;;;;;;2.46;81.66;101679.63;5076818;28;20052;-48
2022/01/26 04:16:02;;;;;;;8.60;3.40;;;;;;;2.41;82.09;101668.31;5070656;28;20106;-48
2022/01/26 04:18:33;;;;;;;10.52;3.88;;;;;;;2.38;81.45;101672.44;5079569;28;20048;-50
2022/01/26 04:21:08;;;;;;;8.25;3.70;;;;;;;2.33;82.18;101682.50;5063609;28;20117;-49
2022/01/26 04:23:41;;;;;;;7.57;3.28;;;;;;;2.30;82.00;101674.72;5070558;28;20048;-47
2022/01/26 04:26:09;;;;;;;12.13;4.03;;;;;;;2.25;82.25;101668.53;5076165;28;20052;-50
2022/01/26 04:28:41;;;;;;;9.75;3.97;;;;;;;2.22;82.63;101670.97;5079414;28;20044;-49
2022/01/26 04:31:09;;;;;;;10.82;4.03;;;;;;;2.17;82.70;101658.00;5069037;28;20447;-48
2022/01/26 04:33:36;;;;;;;9.85;3.60;;;;;;;2.16;82.80;101666.50;5069668;28;20052;-49
2022/01/26 04:36:09;;;;;;;7.95;3.80;;;;;;;2.16;82.66;101660.50;5073620;28;20140;-52
2022/01/26 04:38:40;;;;;;;9.05;4.00;;;;;;;2.17;82.71;101657.13;5071909;28;20426;-51
2022/01/26 04:41:23;;;;;;;10.88;3.10;;;;;;;2.18;82.79;101653.75;5077882;28;20049;-48
2022/01/26 04:43:53;;;;;;;8.15;3.45;;;;;;;2.17;83.27;101641.78;5069062;28;20047;-50
2022/01/26 04:46:19;;;;;;;9.88;3.13;;;;;;;2.16;82.97;101640.03;5055430;28;20726;-52
2022/01/26 04:48:46;;;;;;;5.03;2.55;;;;;;;2.14;82.73;101639.09;5056520;28;20045;-50
2022/01/26 04:51:14;;;;;;;9.48;3.22;;;;;;;2.15;82.74;101640.84;5064464;28;20060;-50
2022/01/26 04:53:40;;;;;;;9.48;3.45;;;;;;;2.15;82.49;101639.16;5055383;28;20059;-48
2022/01/26 04:56:07;;;;;;;6.78;3.00;;;;;;;2.18;82.80;101633.28;5058270;28;20079;-47
2022/01/26 04:58:34;;;;;;;6.80;2.70;;;;;;;2.19;82.86;101629.94;5063983;28;20048;-49
2022/01/26 05:01:01;;;;;;;7.53;3.05;;;;;;;2.18;82.42;101628.19;5059408;28;20460;-52
2022/01/26 05:03:27;;;;;;;11.15;3.45;;;;;;;2.16;82.59;101624.69;5063682;28;20045;-50
2022/01/26 05:05:54;;;;;;;10.68;3.03;;;;;;;2.14;82.88;101616.97;5056970;28;20075;-49
2022/01/26 05:08:21;;;;;;;9.05;2.88;;;;;;;2.11;83.01;101615.97;5060729;28;20060;-50
2022/01/26 05:10:48;;;;;;;7.40;2.70;;;;;;;2.09;82.82;101625.25;5054499;28;20048;-51
2022/01/26 05:13:15;;;;;;;8.57;2.83;;;;;;;2.09;83.49;101617.59;5064692;28;20436;-48
2022/01/26 05:15:43;;;;;;;7.50;3.03;;;;;;;2.09;83.88;101620.16;5058248;28;20045;-47
2022/01/26 05:18:09;;;;;;;8.60;2.63;;;;;;;2.09;83.57;101623.56;5062503;28;20060;-50
2022/01/26 05:20:36;;;;;;;10.98;3.00;;;;;;;2.12;83.83;101615.16;5057641;28;20524;-48
2022/01/26 05:23:02;;;;;;;7.65;3.17;;;;;;;2.16;83.88;101614.47;5061214;28;20048;-48
2022/01/26 05:25:31;;;;;;;14.90;3.13;;;;;;;2.19;83.92;101614.56;5061653;28;20056;-50
2022/01/26 05:27:57;;;;;;;12.25;3.00;;;;;;;2.21;83.83;101612.94;5055511;28;20052;-49
2022/01/26 05:30:24;;;;;;;9.07;4.63;;;;;;;2.24;84.14;101610.50;5052828;28;20048;-52
2022/01/26 05:32:51;;;;;;;11.57;2.90;;;;;;;2.29;83.74;101611.56;5048324;28;20048;-49
2022/01/26 05:35:17;;;;;;;11.20;3.47;;;;;;;2.32;84.00;101606.56;5058091;28;20087;-49
2022/01/26 05:37:44;;;;;;;9.35;3.10;;;;;;;2.37;84.08;101605.06;5053888;28;20055;-48
2022/01/26 05:40:11;;;;;;;10.95;4.43;;;;;;;2.43;84.20;101604.41;5055635;28;20642;-48
2022/01/26 05:42:41;;;;;;;12.70;5.15;;;;;;;2.47;84.32;101602.03;5050427;28;20053;-48
2022/01/26 05:45:18;;;;;;;11.95;4.82;;;;;;;2.52;84.19;101594.53;5057126;28;20110;-50
2022/01/26 05:47:44;;;;;;;33.17;9.45;;;;;;;2.57;84.13;101593.00;5062487;28;20481;-52
2022/01/26 05:50:11;;;;;;;24.20;8.20;;;;;;;2.63;84.28;101598.38;5065064;28;20409;-50
2022/01/26 05:52:37;;;;;;;21.55;6.82;;;;;;;2.70;83.83;101602.03;5055310;28;20055;-48
2022/01/26 05:55:05;;;;;;;15.60;5.32;;;;;;;2.73;83.94;101603.03;5055803;28;20056;-51
2022/01/26 05:57:31;;;;;;;17.48;5.65;;;;;;;2.79;84.53;101599.81;5061192;28;20525;-48
2022/01/26 05:59:59;;;;;;;15.82;5.07;;;;;;;2.84;84.04;101603.41;5056025;28;20044;-49
2022/01/26 06:02:26;;;;;;;11.05;4.25;;;;;;;2.87;84.14;101602.66;5055662;28;20057;-51
2022/01/26 06:04:52;;;;;;;12.85;4.40;;;;;;;2.89;84.03;101607.03;5052736;28;20056;-51
2022/01/26 06:07:18;;;;;;;10.88;4.78;;;;;;;2.92;83.55;101607.13;5051569;28;20044;-48
2022/01/26 06:09:45;;;;;;;12.05;3.83;;;;;;;2.92;84.18;101602.00;5055564;28;20067;-45
2022/01/26 06:12:11;;;;;;;11.18;4.05;;;;;;;2.93;84.24;101608.00;5055188;28;20063;-52
2022/01/26 06:14:38;;;;;;;12.00;5.30;;;;;;;2.91;83.49;101605.38;5046780;28;20064;-50
2022/01/26 06:17:07;;;;;;;16.73;6.30;;;;;;;2.90;84.38;101608.75;5050003;28;20055;-47
2022/01/26 06:19:34;;;;;;;9.90;4.22;;;;;;;2.85;84.62;101605.16;5060073;28;20106;-51
2022/01/26 06:22:00;;;;;;;9.60;3.60;;;;;;;2.82;84.53;101599.94;5057530;28;20055;-54
2022/01/26 06:24:27;;;;;;;12.15;4.10;;;;;;;2.80;84.57;101604.13;5060167;28;20095;-50
2022/01/26 06:26:53;;;;;;;7.70;2.50;;;;;;;2.83;85.12;101604.25;5058462;28;20052;-52
2022/01/26 06:29:20;;;;;;;9.73;3.75;;;;;;;2.84;85.12;101599.16;5050433;28;20056;-52
2022/01/26 06:31:46;;;;;;;9.52;3.00;;;;;;;2.84;84.53;101603.41;5055805;28;20056;-54
2022/01/26 06:34:14;;;;;;;9.50;3.42;;;;;;;2.82;85.25;101597.38;5062960;28;20052;-50
2022/01/26 06:36:43;;;;;;;141.40;55.47;;;;;;;2.82;85.01;101594.81;5059156;28;20056;-49
2022/01/26 06:39:09;;;;;;;83.70;37.97;;;;;;;2.77;85.08;101586.97;5054636;28;20451;-52
2022/01/26 06:41:36;;;;;;;88.50;44.63;;;;;;;2.75;85.50;101582.59;5048953;28;20052;-51
2022/01/26 06:44:13;;;;;;;63.25;33.95;;;;;;;2.75;85.89;101582.59;5048459;28;20086;-50
2022/01/26 06:46:50;;;;;;;52.78;28.05;;;;;;;2.74;85.69;101580.84;5046795;28;20118;-49
2022/01/26 06:49:29;;;;;;;29.90;14.07;;;;;;;2.73;85.74;101572.31;5048283;28;20486;-50
2022/01/26 06:51:56;;;;;;;11.88;6.03;;;;;;;2.77;85.71;101575.84;5058855;28;20053;-48
2022/01/26 06:54:23;;;;;;;12.80;5.45;;;;;;;2.76;85.55;101566.44;5049258;28;20048;-49
2022/01/26 06:56:49;;;;;;;11.85;4.20;;;;;;;2.74;86.12;101565.50;5048437;28;20049;-52
2022/01/26 06:59:16;;;;;;;12.45;4.53;;;;;;;2.71;86.22;101557.72;5054413;28;20958;-51
2022/01/26 07:01:43;;;;;;;7.45;3.50;;;;;;;2.69;86.38;101561.91;5043633;28;20561;-55
2022/01/26 07:04:09;;;;;;;7.50;3.35;;;;;;;2.68;86.08;101561.03;5048150;28;20169;-47
2022/01/26 07:06:37;;;;;;;11.23;4.68;;;;;;;2.71;86.47;101555.16;5049823;28;20060;-49
2022/01/26 07:09:03;;;;;;;16.05;6.38;;;;;;;2.73;86.32;101556.06;5066965;28;20056;-49
2022/01/26 07:11:30;;;;;;;15.02;5.38;;;;;;;2.70;86.87;101553.41;5065947;28;20055;-49
2022/01/26 07:13:59;;;;;;;12.23;6.10;;;;;;;2.66;87.21;101551.56;5063084;28;20048;-52
2022/01/26 07:19:53;;;;;;;12.25;4.97;;;;;;;2.67;87.90;101543.94;5063808;28;20516;-50
2022/01/26 07:22:21;;;;;;;11.30;4.60;;;;;;;2.69;87.90;101543.97;5056888;28;20048;-46
2022/01/26 07:24:48;;;;;;;15.65;6.50;;;;;;;2.70;88.04;101548.28;5058802;28;20087;-46
2022/01/26 07:27:15;;;;;;;13.70;5.43;;;;;;;2.70;87.33;101546.59;5056350;28;20052;-50
2022/01/26 07:29:41;;;;;;;11.65;5.57;;;;;;;2.70;87.89;101549.16;5052752;28;20526;-48
2022/01/26 07:32:08;;;;;;;12.27;5.93;;;;;;;2.70;88.16;101538.03;5051328;28;20394;-51
2022/01/26 07:34:37;;;;;;;15.43;7.15;;;;;;;2.72;88.33;101546.66;5046646;28;20049;-51
2022/01/26 07:37:06;;;;;;;15.80;6.55;;;;;;;2.74;88.03;101539.91;5047244;28;20060;-51
2022/01/26 07:39:44;;;;;;;18.05;6.93;;;;;;;2.76;87.90;101538.25;5049683;28;20056;-48
2022/01/26 07:42:10;;;;;;;13.15;6.00;;;;;;;2.76;88.51;101533.13;5050088;28;20048;-51
2022/01/26 07:44:37;;;;;;;13.63;6.22;;;;;;;2.75;88.47;101536.50;5046658;28;20171;-53
2022/01/26 07:47:05;;;;;;;18.00;7.78;;;;;;;2.77;88.69;101529.75;5055409;28;20132;-55
2022/01/26 07:49:31;;;;;;;13.07;8.18;;;;;;;2.78;88.04;101531.50;5052017;28;20048;-48
2022/01/26 07:51:58;;;;;;;16.17;8.10;;;;;;;2.79;87.97;101523.00;5057074;28;21634;-48
2022/01/26 07:54:27;;;;;;;14.23;7.20;;;;;;;2.80;88.60;101524.75;5050970;28;20473;-51
2022/01/26 07:56:55;;;;;;;13.05;5.97;;;;;;;2.78;88.30;101527.25;5045031;28;20048;-49
2022/01/26 07:59:21;;;;;;;10.75;5.53;;;;;;;2.79;88.54;101518.75;5052424;28;20060;-48
2022/01/26 08:01:48;;;;;;;9.23;5.30;;;;;;;2.78;88.84;101516.16;5050458;28;20113;-54
2022/01/26 08:04:14;;;;;;;11.07;5.47;;;;;;;2.80;89.08;101522.19;5064039;28;20041;-50
2022/01/26 08:06:41;;;;;;;10.75;5.28;;;;;;;2.82;89.40;101516.31;5053520;28;21055;-51
2022/01/26 08:09:07;;;;;;;14.38;5.97;;;;;;;2.85;89.16;101513.84;5054355;28;20072;-50
2022/01/26 08:11:34;;;;;;;14.18;5.72;;;;;;;2.90;89.48;101511.44;5050808;28;20654;-52
2022/01/26 08:14:02;;;;;;;12.30;5.53;;;;;;;2.96;89.60;101511.66;5056493;28;20615;-56
2022/01/26 08:16:28;;;;;;;10.77;5.35;;;;;;;2.99;89.17;101505.78;5050172;28;20140;-56
2022/01/26 08:18:54;;;;;;;9.30;5.43;;;;;;;3.04;89.48;101511.91;5054178;28;20049;-49
2022/01/26 08:21:21;;;;;;;12.05;5.47;;;;;;;3.07;89.59;101520.59;5056608;28;21616;-52
2022/01/26 08:23:48;;;;;;;13.85;5.15;;;;;;;3.10;89.78;101515.56;5063088;28;20052;-50
2022/01/26 08:26:21;;;;;;;10.23;4.82;;;;;;;3.15;89.85;101503.81;5064350;28;20048;-47
2022/01/26 08:28:53;;;;;;;12.18;5.35;;;;;;;3.19;90.27;101501.34;5053707;28;20111;-50
2022/01/26 08:31:21;;;;;;;13.23;6.30;;;;;;;3.24;89.61;101504.94;5054197;28;20060;-48
2022/01/26 08:33:47;;;;;;;9.88;5.68;;;;;;;3.28;89.66;101502.53;5063501;28;20129;-56
2022/01/26 08:36:14;;;;;;;20.10;7.47;;;;;;;3.33;90.11;101500.13;5066440;28;20500;-55
2022/01/26 08:38:40;;;;;;;18.65;6.78;;;;;;;3.38;90.21;101501.13;5051581;28;20698;-54
2022/01/26 08:41:07;;;;;;;14.73;5.72;;;;;;;3.42;90.32;101497.84;5052080;28;20055;-52
2022/01/26 08:43:34;;;;;;;20.20;7.25;;;;;;;3.44;89.79;101498.78;5050827;28;20037;-51
2022/01/26 08:46:06;;;;;;;18.90;7.90;;;;;;;3.48;89.99;101501.47;5061454;28;20405;-53
2022/01/26 08:48:36;;;;;;;16.95;6.80;;;;;;;3.53;90.44;101493.06;5064964;28;20056;-55
2022/01/26 08:51:02;;;;;;;14.95;5.00;;;;;;;3.60;90.20;101493.31;5060396;28;20063;-47
2022/01/26 08:53:29;;;;;;;13.10;4.38;;;;;;;3.66;90.21;101493.53;5055854;28;20401;-51
2022/01/26 08:55:55;;;;;;;8.77;3.90;;;;;;;3.73;89.84;101500.59;5060436;28;20440;-47
2022/01/26 08:58:22;;;;;;;6.90;3.63;;;;;;;3.80;90.52;101497.41;5049028;28;20056;-51
2022/01/26 09:00:48;;;;;;;5.85;3.50;;;;;;;3.87;90.15;101487.31;5060030;28;20052;-55
2022/01/26 09:03:15;;;;;;;8.82;3.65;;;;;;;3.93;89.87;101488.38;5063999;28;20381;-55
2022/01/26 09:05:43;;;;;;;7.43;3.58;;;;;;;3.99;89.22;101493.69;5057578;28;20853;-49
2022/01/26 09:08:10;;;;;;;7.88;3.67;;;;;;;4.04;89.54;101492.13;5052842;28;20053;-50
2022/01/26 09:10:38;;;;;;;5.80;2.95;;;;;;;4.09;89.22;101494.84;5055576;28;20048;-51
2022/01/26 09:13:09;;;;;;;5.03;3.45;;;;;;;4.14;89.46;101498.41;5058632;28;20135;-51
2022/01/26 09:15:36;;;;;;;7.13;3.50;;;;;;;4.19;89.74;101490.88;5059408;28;20066;-51
2022/01/26 09:18:05;;;;;;;12.50;5.70;;;;;;;4.26;89.58;101493.66;5064015;28;20056;-49
2022/01/26 09:20:35;;;;;;;8.32;3.75;;;;;;;4.35;89.79;101491.38;5066454;28;20521;-56
2022/01/26 09:23:04;;;;;;;6.75;4.00;;;;;;;4.42;90.54;101493.28;5070078;28;20048;-53
2022/01/26 09:25:31;;;;;;;6.60;3.53;;;;;;;4.51;90.10;101486.66;5049990;28;20056;-47
2022/01/26 09:27:57;;;;;;;6.88;3.58;;;;;;;4.57;90.25;101479.13;5050761;28;20872;-51
2022/01/26 09:30:24;;;;;;;8.35;4.32;;;;;;;4.65;90.30;101477.63;5048204;28;20572;-52
2022/01/26 09:32:50;;;;;;;10.07;4.18;;;;;;;4.69;89.72;101472.66;5047851;28;20075;-51
2022/01/26 09:35:17;;;;;;;11.10;4.00;;;;;;;4.77;89.97;101466.84;5061316;28;20060;-48
2022/01/26 09:37:44;;;;;;;10.65;4.45;;;;;;;4.81;89.30;101473.81;5065263;28;20044;-56
2022/01/26 09:40:12;;;;;;;7.25;3.80;;;;;;;4.85;89.61;101470.50;5048506;28;20045;-52
2022/01/26 09:42:41;;;;;;;6.57;3.80;;;;;;;4.90;89.55;101464.66;5051448;28;20044;-51
2022/01/26 09:45:11;;;;;;;15.65;4.60;;;;;;;4.93;88.96;101454.44;5053480;28;20068;-54
2022/01/26 09:47:38;;;;;;;8.52;4.22;;;;;;;5.00;88.69;101461.47;5059776;28;20505;-54
2022/01/26 09:50:05;;;;;;;6.93;3.10;;;;;;;5.06;88.81;101446.22;5064435;28;20044;-53
2022/01/26 09:52:37;;;;;;;9.07;3.67;;;;;;;5.13;88.72;101439.53;5062342;28;20060;-52
2022/01/26 09:55:05;;;;;;;9.02;3.60;;;;;;;5.18;88.40;101429.34;5065941;28;20037;-54
2022/01/26 09:57:33;;;;;;;7.70;3.53;;;;;;;5.24;87.93;101424.41;5067511;28;20469;-52
2022/01/26 10:00:02;;;;;;;8.93;3.53;;;;;;;5.30;87.79;101425.41;5066376;28;20664;-56
2022/01/26 10:02:30;;;;;;;13.35;4.05;;;;;;;5.34;87.49;101413.50;5065277;28;20075;-54
2022/01/26 10:05:01;;;;;;;9.48;4.32;;;;;;;5.37;87.32;101411.00;5064963;28;20048;-49
2022/01/26 10:07:41;;;;;;;5.85;3.35;;;;;;;5.39;86.80;101412.78;5064604;28;20128;-49
2022/01/26 10:15:26;;;;;;;7.30;2.85;;;;;;;5.43;86.95;101411.13;5065495;28;20430;-46
2022/01/26 10:16:32;;;;;;;5.63;2.50;;;;;;;5.53;86.69;101407.06;5064009;28;20205;-48
2022/01/26 10:18:59;;;;;;;4.80;2.90;;;;;;;5.61;86.18;101395.25;5062452;28;20048;-49
2022/01/26 10:21:25;;;;;;;7.93;3.03;;;;;;;5.70;86.02;101385.16;5064804;28;20048;-48
2022/01/26 10:23:54;;;;;;;5.40;2.60;;;;;;;5.75;85.75;101382.72;5063553;28;20045;-52
2022/01/26 10:26:21;;;;;;;4.43;2.28;;;;;;;5.81;85.58;101390.56;5062418;28;20055;-53
2022/01/26 10:28:50;;;;;;;4.72;2.75;;;;;;;5.86;85.82;101396.69;5065928;28;20051;-56
2022/01/26 10:31:19;;;;;;;6.43;2.70;;;;;;;5.89;85.19;101396.75;5062654;28;20040;-55
2022/01/26 10:33:56;;;;;;;4.63;2.42;;;;;;;5.90;84.53;101395.94;5061470;28;20045;-55
2022/01/26 10:36:23;;;;;;;4.40;2.30;;;;;;;5.94;84.29;101405.47;5064283;28;20049;-55
2022/01/26 10:39:01;;;;;;;4.00;1.95;;;;;;;5.96;84.46;101393.50;5064639;28;20040;-54
2022/01/26 10:41:28;;;;;;;4.97;1.77;;;;;;;5.97;84.13;101384.94;5061871;28;20512;-50
2022/01/26 10:43:57;;;;;;;2.17;1.27;;;;;;;5.96;83.61;101388.34;5063002;28;20478;-50
2022/01/26 10:46:27;;;;;;;3.30;1.38;;;;;;;5.96;83.69;101393.50;5063315;28;20505;-48
2022/01/26 10:49:07;;;;;;;2.90;1.70;;;;;;;5.96;83.42;101388.34;5060364;28;20521;-47
2022/01/26 10:51:51;;;;;;;6.35;1.77;;;;;;;5.98;83.71;101391.81;5061517;28;20059;-53
2022/01/26 10:54:22;;;;;;;2.33;1.33;;;;;;;5.96;83.43;101388.34;5061850;28;20086;-55
2022/01/26 10:56:49;;;;;;;1.80;1.20;;;;;;;5.92;83.22;101381.41;5063022;28;20166;-56
2022/01/26 10:59:17;;;;;;;3.05;1.40;;;;;;;5.92;83.57;101387.41;5064317;28;20048;-55
2022/01/26 11:01:44;;;;;;;2.28;1.60;;;;;;;5.92;83.68;101382.25;5060865;28;20059;-55
2022/01/26 11:04:10;;;;;;;2.67;1.17;;;;;;;5.91;83.57;101374.50;5063120;28;20048;-52
2022/01/26 11:06:41;;;;;;;3.75;1.42;;;;;;;5.89;83.86;101376.16;5064235;28;20052;-51
2022/01/26 11:09:12;;;;;;;2.92;1.20;;;;;;;5.86;83.81;101366.66;5063473;28;20413;-52
2022/01/26 11:11:40;;;;;;;3.38;1.50;;;;;;;5.85;83.86;101371.78;5061299;28;20052;-52
2022/01/26 11:14:15;;;;;;;7.43;1.50;;;;;;;5.85;84.22;101361.50;5063751;28;20056;-50
2022/01/26 11:16:50;;;;;;;3.47;1.60;;;;;;;5.85;84.02;101364.06;5064034;28;20056;-51
2022/01/26 11:19:17;;;;;;;3.63;1.40;;;;;;;5.85;84.02;101361.50;5064047;28;20080;-52
2022/01/26 11:21:43;;;;;;;3.38;1.30;;;;;;;5.85;84.09;101353.78;5063626;28;20052;-49
2022/01/26 11:24:16;;;;;;;6.05;1.85;;;;;;;5.85;84.43;101354.63;5063168;28;20445;-51
2022/01/26 11:26:44;;;;;;;4.47;1.20;;;;;;;5.86;84.04;101355.50;5063136;28;20481;-53
2022/01/26 11:29:19;;;;;;;4.57;1.63;;;;;;;5.85;83.75;101348.63;5065214;28;21467;-54
2022/01/26 11:31:46;;;;;;;4.57;1.88;;;;;;;5.87;84.27;101350.41;5064532;28;20409;-53
2022/01/26 11:34:18;;;;;;;3.97;1.58;;;;;;;5.91;83.77;101348.78;5062675;28;20082;-51
2022/01/26 11:36:48;;;;;;;3.38;1.73;;;;;;;5.93;84.08;101347.97;5064085;28;20048;-52
2022/01/26 11:45:07;;;;;;;3.88;1.80;;;;;;;5.91;83.92;101334.22;5039491;28;20111;-56
2022/01/26 11:47:37;;;;;;;3.72;2.15;;;;;;;5.89;83.48;101337.56;5060984;28;20072;-54
2022/01/26 11:50:12;;;;;;;7.68;3.42;;;;;;;5.90;83.38;101331.59;5063337;28;20052;-55
2022/01/26 11:52:40;;;;;;;4.37;2.30;;;;;;;5.90;83.47;101336.75;5061649;28;20110;-56
2022/01/26 11:55:22;;;;;;;4.65;2.30;;;;;;;5.91;83.04;101334.22;5065642;28;20045;-50
2022/01/26 11:57:51;;;;;;;5.07;2.33;;;;;;;5.91;82.72;101323.91;5065523;28;20048;-48
2022/01/26 12:00:37;;;;;;;4.30;2.38;;;;;;;5.88;82.31;101313.53;5067414;28;20044;-48
2022/01/26 12:03:08;;;;;;;6.85;2.33;;;;;;;5.84;82.69;101313.44;5065985;28;20040;-49
2022/01/26 12:05:45;;;;;;;4.20;2.20;;;;;;;5.79;82.06;101317.63;5067681;28;20049;-44
2022/01/26 12:08:11;;;;;;;6.30;2.03;;;;;;;5.75;82.21;101305.53;5065353;28;20662;-47
2022/01/26 12:10:41;;;;;;;4.10;1.98;;;;;;;5.71;82.56;101305.44;5066588;28;20489;-44
2022/01/26 12:13:10;;;;;;;4.47;2.20;;;;;;;5.74;82.76;101304.69;5064283;28;20409;-49
2022/01/26 12:15:43;;;;;;;2.97;1.40;;;;;;;5.80;82.28;101298.78;5065615;28;20044;-51
2022/01/26 12:18:22;;;;;;;3.67;1.83;;;;;;;5.84;82.08;101290.28;5067032;28;20082;-52
2022/01/26 12:32:30;;;;;;;3.20;1.65;;;;;;;5.95;80.49;101252.78;5067635;28;20071;-52
2022/01/26 12:35:10;;;;;;;4.82;1.75;;;;;;;5.92;79.62;101239.88;5065780;28;20047;-51
2022/01/26 12:37:50;;;;;;;4.03;1.40;;;;;;;5.89;79.17;101232.97;5065523;28;20478;-51
2022/01/26 12:43:10;;;;;;;5.80;1.40;;;;;;;5.85;79.65;101235.41;5064787;28;20056;-46
2022/01/26 12:45:36;;;;;;;5.18;1.25;;;;;;;5.81;79.45;101237.06;5065460;28;20048;-47
2022/01/26 12:48:03;;;;;;;3.03;1.50;;;;;;;5.79;79.55;101217.28;5064564;28;20053;-52
2022/01/26 12:50:30;;;;;;;3.95;1.08;;;;;;;5.78;79.48;101228.44;5066453;28;20059;-49
2022/01/26 12:52:58;;;;;;;2.75;1.15;;;;;;;5.75;79.83;101238.66;5066612;28;20444;-51
2022/01/26 12:55:27;;;;;;;4.63;1.08;;;;;;;5.74;80.06;101236.91;5064423;28;20044;-50
2022/01/26 12:57:54;;;;;;;2.10;0.90;;;;;;;5.70;79.81;101229.13;5064737;28;20493;-50
2022/01/26 13:00:21;;;;;;;5.78;1.50;;;;;;;5.65;79.98;101217.00;5065686;28;20041;-50
2022/01/26 13:02:48;;;;;;;8.60;1.98;;;;;;;5.60;80.10;101227.22;5067242;28;20071;-52
2022/01/26 13:05:16;;;;;;;3.80;1.42;;;;;;;5.61;80.76;101226.38;5066267;28;20044;-50
2022/01/26 13:07:43;;;;;;;4.20;2.22;;;;;;;5.59;80.47;101222.03;5067391;28;20060;-52